Cashton, WI (54619)

9:01 AM CST on February 23, 2017 (GMT -0600)
Viroqua | | Change Station
Active Advisory: Winter Storm Watch

Elev 1293 ft 43.58 °N, 90.90 °W | Updated 6 minutes ago

Mostly Cloudy
Mostly Cloudy
37 °F
Feels Like 29 °F
N
14
Wind Variable Wind from North

Today
High -- | Low -- °F
--% Chance of Precip.
Yesterday
High -- | Low -- °F
Precip. -- in
Pressure 29.83 in
Visibility 10.0 miles
Clouds Scattered Clouds 1600 ft
Windchill 29 °F
Dew Point 32 °F
Humidity 81%
Rainfall 0.00 in
Snow Depth Not available.
6:49 AM 5:44 PM
Waning Crescent, 10% visible
METAR KY51 231455Z AUTO 01012KT 10SM SCT016 03/00 A2983 RMK AO1 T00290000
Pressure 29.83 in
Visibility 10.0 miles
Clouds Scattered Clouds 1600 ft
Windchill 29 °F
Dew Point 32 °F
Humidity 81%
Rainfall 0.00 in
Snow Depth Not available.
6:49 AM 5:44 PM
Waning Crescent, 10% visible
METAR KY51 231455Z AUTO 01012KT 10SM SCT016 03/00 A2983 RMK AO1 T00290000

Get Your Daily Forecast Email!

Thanks for signing up!

Be on the lookout for a verification email in your inbox.

You'll start receiving the daily forecast at 8 AM.

×

10-Day Weather Forecast

Almanac

Astronomy

Feb. 23, 2017 Rise Set
Actual Time
Civil Twilight
Nautical Twilight
Astronomical Twilight
Moon
Length of Visible Light
Length of Day
Tomorrow will be .
, % of the Moon is Illuminated

Today's Extremes

State Highs State Lows

Community

WunderPhotos

Upload Photos

1,962,540 photos uploaded!

WunderBlog® & News

Nearby

Air Quality

  Air Quality AQ Index Pollutant
Not available.

Snow Depth

Station Depth Elevation

Earthquake Activity

City Distance Mag. Time & Date
Minimum magnitude displayed is 2.5.

Coastal Water Temperatures

Place Temperature

Stations

Nearby Weather Stations

Station Location Temp. Windchill Dew Point Humidity Wind Precip. Elev Updated Type
                   

Watches & Warnings

Winter Storm Watch
Issued: 3:31 AM CST Feb. 23, 2017 – National Weather Service

... Winter Storm Watch in effect from late tonight through late
Friday night...

The National Weather Service in La Crosse has issued a Winter
Storm Watch... which is in effect from late tonight through late
Friday night.

* Wintry mix overnight... becoming all snow by Friday night.

* Total snow accumulations of 3 to 10 inches. Light icing possible.

* Significant reductions in visibility are likely.

* Blowing and drifting snow Friday through Friday night in open
and unsheltered areas

* travel will become difficult to potentially impossible by Friday
night. Expect slippery travel for the morning commute on Friday.

Precautionary/preparedness actions...

A Winter Storm Watch means there is potential for significant
snow... sleet or ice accumulations that may impact travel.
Continue to monitor the latest forecasts.



Rieck